Arlington, South Dakota
Current Conditions -  °F | °C
As of 5:50 PM on Sunday 21 Dec 2014 (Local Time) from KMDS Reporting Station
Haze Haze  
Wind Chill: 24°   Ceiling: 300
Heat Index: 34°   Visibility: 3mi
Dew Point: 34°   Wind: 16mph
Humidity: 100%   Direction: 180°S
Pressure: 29.55"   Gusts: 22mph
Location:  44.36°N, 97.13°W
Report Text: KMDS 212350Z AUTO 18014G19KT 3SM BR OVC003 01/01 A2955 RMK AO2
Loading
Personal Weather Stations






























Interactive Weather Map New forecast layout! Learn more

10-Day Weather Forecast

Advertisements
Track Severe Weather on mobile